JXN weather

Jackson County Reynolds Field
Jackson, Michigan, United States

Public forecast

Using degrees Fahrenheit for public forecast. Weather courtesy of forecast.io.

Current aviation weather report (METAR) for Jackson County Reynolds Field

Retrieved 2020/05/30 03:56 UTC (48 minutes ago):

KJXN 300356Z AUTO 25006KT 10SM CLR 13/09 A3003 RMK AO2 SLP168 T01330094

Aviation forecast (TAF) for Jackson County Reynolds Field

Retrieved 2020-05-30 00:51 UTC (4 hours ago):

TAF KJXN 292348Z 3000/3024 27010KT P6SM SCT040 FM300200 30008KT P6SM SCT060 FM300400 31006KT P6SM BKN060 FM301500 31011KT P6SM BKN035